Terminal Aerodrome Forecast
Issued by NWS

Home | Current Version | Previous Version | Text Only | Print | Product List | Glossary On
Versions: 1 2 3 4 5 6 7 8 9 10 11 12 13 14 15
000
FTUS42 TJSJ 191731
TAFJBQ
TAF
TJBQ 191731Z 1918/2018 07012KT P6SM FEW025
     FM192000 09012KT P6SM VCSH SCT025 SCT040
     FM200000 10007KT P6SM SCT030
     FM201400 08015KT P6SM SCT025=

USA.gov is the U.S. government's official web portal to all federal, state and local government web resources and services.